createdAt,value
2018-02-08T00:00:37.633Z,81.65
2018-02-08T00:03:05.038Z,82.48
2018-02-08T00:05:32.466Z,82.33
2018-02-08T00:07:59.866Z,81.79
2018-02-08T00:10:27.281Z,81.16
2018-02-08T00:12:54.694Z,81.45
2018-02-08T00:15:22.122Z,81.31
2018-02-08T00:17:49.541Z,81.26
2018-02-08T00:20:16.958Z,80.96
2018-02-08T00:22:45.929Z,81.16
2018-02-08T00:25:13.349Z,81.29
2018-02-08T00:27:40.761Z,82.14
2018-02-08T00:30:08.186Z,81.78
2018-02-08T00:32:35.589Z,81.18
2018-02-08T00:35:03.013Z,81.85
2018-02-08T00:37:30.417Z,82.20
2018-02-08T00:39:57.835Z,82.14
2018-02-08T00:42:25.245Z,82.43
2018-02-08T00:44:52.664Z,83.32
2018-02-08T00:47:20.437Z,82.13
2018-02-08T00:49:47.853Z,82.23
2018-02-08T00:52:15.935Z,81.08
2018-02-08T00:54:43.357Z,81.77
2018-02-08T00:57:10.769Z,81.66
2018-02-08T00:59:38.197Z,82.33
2018-02-08T01:02:05.605Z,83.09
2018-02-08T01:04:33.019Z,82.12
2018-02-08T01:07:00.446Z,81.88
2018-02-08T01:09:27.857Z,81.15
2018-02-08T01:11:55.281Z,81.94
2018-02-08T01:14:22.680Z,82.07
2018-02-08T01:16:50.108Z,82.41
2018-02-08T01:19:17.514Z,82.09
2018-02-08T01:21:44.932Z,82.55
2018-02-08T01:24:12.340Z,81.98
2018-02-08T01:26:39.761Z,81.93
2018-02-08T01:29:07.174Z,81.76
2018-02-08T01:31:34.589Z,82.16
2018-02-08T01:34:01.997Z,82.36
2018-02-08T01:36:29.417Z,82.70
2018-02-08T01:38:56.826Z,82.43
2018-02-08T01:41:24.240Z,82.61
2018-02-08T01:43:51.654Z,82.66
2018-02-08T01:46:19.078Z,82.10
2018-02-08T01:48:46.481Z,81.83
2018-02-08T01:51:13.900Z,82.29
2018-02-08T01:53:41.317Z,82.69
2018-02-08T01:56:08.738Z,82.49
2018-02-08T01:58:36.145Z,83.43
2018-02-08T02:01:03.577Z,82.93
2018-02-08T02:03:30.985Z,83.32
2018-02-08T02:05:58.405Z,83.27
2018-02-08T02:08:25.822Z,83.05
2018-02-08T02:10:53.248Z,84.13
2018-02-08T02:13:20.669Z,83.14
2018-02-08T02:15:48.080Z,82.61
2018-02-08T02:18:15.497Z,82.34
2018-02-08T02:20:42.926Z,82.02
2018-02-08T02:23:10.334Z,81.95
2018-02-08T02:25:37.759Z,81.83
2018-02-08T02:28:05.175Z,82.29
2018-02-08T02:30:33.354Z,82.60
2018-02-08T02:33:00.783Z,82.86
2018-02-08T02:35:28.200Z,82.57
2018-02-08T02:37:55.617Z,82.70
2018-02-08T02:40:23.025Z,83.04
2018-02-08T02:45:24.228Z,83.18
2018-02-08T02:47:51.643Z,83.87
2018-02-08T02:50:19.052Z,84.10
2018-02-08T02:52:46.475Z,84.07
2018-02-08T02:55:13.885Z,84.41
2018-02-08T02:57:41.297Z,84.18
2018-02-08T03:00:08.731Z,84.77
2018-02-08T03:02:36.138Z,84.67
2018-02-08T03:05:03.556Z,84.13
2018-02-08T03:07:30.965Z,83.79
2018-02-08T03:09:58.372Z,83.83
2018-02-08T03:12:25.786Z,84.42
2018-02-08T03:14:53.192Z,84.93
2018-02-08T03:17:20.617Z,85.41
2018-02-08T03:19:48.029Z,85.21
2018-02-08T03:22:15.455Z,84.72
2018-02-08T03:24:42.864Z,84.87
2018-02-08T03:27:10.293Z,85.15
2018-02-08T03:29:37.721Z,84.81
2018-02-08T03:32:05.633Z,85.38
2018-02-08T03:34:33.066Z,84.57
2018-02-08T03:37:00.469Z,84.83
2018-02-08T03:39:27.889Z,84.78
2018-02-08T03:41:55.296Z,84.39
2018-02-08T03:44:22.715Z,85.12
2018-02-08T03:46:50.117Z,84.66
2018-02-08T03:49:17.537Z,84.83
2018-02-08T03:51:44.949Z,84.74
2018-02-08T03:54:12.377Z,84.32
2018-02-08T03:56:39.789Z,84.83
2018-02-08T03:59:07.204Z,85.09
2018-02-08T04:01:34.616Z,85.16
2018-02-08T04:04:02.046Z,85.18
2018-02-08T04:06:29.477Z,85.29
2018-02-08T04:08:56.917Z,84.76
2018-02-08T04:11:24.336Z,84.09
2018-02-08T04:13:51.748Z,84.11
2018-02-08T04:16:19.157Z,84.30
2018-02-08T04:18:46.584Z,84.43
2018-02-08T04:21:13.992Z,84.40
2018-02-08T04:23:41.412Z,84.77
2018-02-08T04:26:08.865Z,85.17
2018-02-08T04:28:36.277Z,85.24
2018-02-08T04:31:03.701Z,85.38
2018-02-08T04:33:31.137Z,85.29
2018-02-08T04:35:58.544Z,84.76
2018-02-08T04:38:37.880Z,84.64
2018-02-08T04:41:17.146Z,85.15
2018-02-08T04:47:02.556Z,85.17
2018-02-08T04:49:29.972Z,84.96
2018-02-08T04:51:57.378Z,84.89
2018-02-08T04:54:24.796Z,85.08
2018-02-08T04:56:52.651Z,84.46
2018-02-08T04:59:20.064Z,84.76
2018-02-08T05:01:47.479Z,84.05
2018-02-08T05:04:14.900Z,83.55
2018-02-08T05:06:42.317Z,84.23
2018-02-08T05:09:09.737Z,84.06
2018-02-08T05:11:37.144Z,84.31
2018-02-08T05:14:04.574Z,84.41
2018-02-08T05:16:31.985Z,84.81
2018-02-08T05:18:59.392Z,84.89
2018-02-08T05:21:26.825Z,84.95
2018-02-08T05:23:54.234Z,85.73
2018-02-08T05:26:21.663Z,86.60
2018-02-08T05:28:49.185Z,85.46
2018-02-08T05:31:16.608Z,85.02
2018-02-08T05:33:44.020Z,84.94
2018-02-08T05:36:11.443Z,84.99
2018-02-08T05:38:38.884Z,85.32
2018-02-08T05:41:06.302Z,85.09
2018-02-08T05:43:33.717Z,85.54
2018-02-08T05:46:01.138Z,86.29
2018-02-08T05:48:28.553Z,86.79
2018-02-08T05:50:55.981Z,86.90
2018-02-08T05:53:23.404Z,86.81
2018-02-08T05:55:50.833Z,87.13
2018-02-08T05:58:18.264Z,87.83
2018-02-08T06:00:45.672Z,87.59
2018-02-08T06:03:13.088Z,86.94
2018-02-08T06:05:40.516Z,87.37
2018-02-08T06:08:07.920Z,87.30
2018-02-08T06:10:35.335Z,86.94
2018-02-08T06:13:02.758Z,87.38
2018-02-08T06:15:30.184Z,87.23
2018-02-08T06:17:57.647Z,87.11
2018-02-08T06:20:25.093Z,87.52
2018-02-08T06:22:52.508Z,88.10
2018-02-08T06:25:19.932Z,88.41
2018-02-08T06:27:47.660Z,88.49
2018-02-08T06:30:15.096Z,88.12
2018-02-08T06:32:42.963Z,88.40
2018-02-08T06:35:10.377Z,88.17
2018-02-08T06:37:37.809Z,88.51
2018-02-08T06:40:05.230Z,88.21
2018-02-08T06:42:32.651Z,87.94
2018-02-08T06:45:00.069Z,88.60
2018-02-08T06:47:27.497Z,88.21
2018-02-08T06:49:54.918Z,88.11
2018-02-08T06:52:22.344Z,87.94
2018-02-08T06:54:49.766Z,87.95
2018-02-08T06:57:17.193Z,88.00
2018-02-08T06:59:44.609Z,88.23
2018-02-08T07:02:12.037Z,88.27
2018-02-08T07:04:39.464Z,88.67
2018-02-08T07:07:06.881Z,88.75
2018-02-08T07:09:34.303Z,88.57
2018-02-08T07:12:01.734Z,87.92
2018-02-08T07:14:29.150Z,87.56
2018-02-08T07:16:56.566Z,87.71
2018-02-08T07:19:23.977Z,87.88
2018-02-08T07:21:51.407Z,88.28
2018-02-08T07:24:18.825Z,87.74
2018-02-08T07:26:46.249Z,87.86
2018-02-08T07:29:13.728Z,87.61
2018-02-08T07:31:41.131Z,87.79
2018-02-08T07:34:08.557Z,87.25
2018-02-08T07:36:35.977Z,87.16
2018-02-08T07:39:03.392Z,86.08
2018-02-08T07:41:30.820Z,86.12
2018-02-08T07:43:58.438Z,85.60
2018-02-08T07:46:25.852Z,85.30
2018-02-08T07:48:53.294Z,85.21
2018-02-08T07:51:20.702Z,85.15
2018-02-08T07:53:48.131Z,85.36
2018-02-08T07:56:15.545Z,84.14
2018-02-08T07:58:42.972Z,83.31
2018-02-08T08:01:10.384Z,84.18
2018-02-08T08:03:37.804Z,83.73
2018-02-08T08:06:05.218Z,83.60
2018-02-08T08:08:32.632Z,83.23
2018-02-08T08:11:00.059Z,83.39
2018-02-08T08:13:27.473Z,83.73
2018-02-08T08:15:54.884Z,82.88
2018-02-08T08:18:22.305Z,84.28
2018-02-08T08:20:49.717Z,82.74
2018-02-08T08:23:17.956Z,82.67
2018-02-08T08:25:45.374Z,81.53
2018-02-08T08:28:12.793Z,82.41
2018-02-08T08:30:40.204Z,81.88
2018-02-08T08:33:07.620Z,81.78
2018-02-08T08:35:35.030Z,82.91
2018-02-08T08:38:02.455Z,81.95
2018-02-08T08:40:29.861Z,82.38
2018-02-08T08:42:57.322Z,81.84
2018-02-08T08:45:24.741Z,81.53
2018-02-08T08:47:52.152Z,82.39
2018-02-08T08:50:19.569Z,82.03
2018-02-08T08:52:46.988Z,81.14
2018-02-08T08:55:14.409Z,81.91
2018-02-08T08:57:41.812Z,82.85
2018-02-08T09:00:09.241Z,83.26
2018-02-08T09:02:36.654Z,82.03
2018-02-08T09:05:04.071Z,81.58
2018-02-08T09:07:31.490Z,81.43
2018-02-08T09:09:58.905Z,80.97
2018-02-08T09:12:26.307Z,80.96
2018-02-08T09:14:53.728Z,80.16
2018-02-08T09:17:21.136Z,79.24
2018-02-08T09:19:48.546Z,79.79
2018-02-08T09:22:15.956Z,80.28
2018-02-08T09:24:43.372Z,80.58
2018-02-08T09:27:10.783Z,80.65
2018-02-08T09:29:38.196Z,80.76
2018-02-08T09:32:05.604Z,79.27
2018-02-08T09:34:33.031Z,78.12
2018-02-08T09:37:00.431Z,77.86
2018-02-08T09:39:27.836Z,78.76
2018-02-08T09:41:55.253Z,78.21
2018-02-08T09:44:22.661Z,76.88
2018-02-08T09:46:50.079Z,77.82
2018-02-08T09:49:17.501Z,76.95
2018-02-08T09:51:44.924Z,78.88
2018-02-08T09:54:12.330Z,79.59
2018-02-08T09:56:39.750Z,79.27
2018-02-08T09:59:07.153Z,77.76
2018-02-08T10:01:34.571Z,77.81
2018-02-08T10:04:01.989Z,78.59
2018-02-08T10:06:29.392Z,78.92
2018-02-08T10:08:56.812Z,78.63
2018-02-08T10:11:24.225Z,78.70
2018-02-08T10:13:52.377Z,79.60
2018-02-08T10:16:19.799Z,79.17
2018-02-08T10:18:47.201Z,78.24
2018-02-08T10:21:14.617Z,78.86
2018-02-08T10:23:42.041Z,78.12
2018-02-08T10:26:09.457Z,78.68
2018-02-08T10:28:36.869Z,78.46
2018-02-08T10:31:04.282Z,79.01
2018-02-08T10:33:31.684Z,77.33
2018-02-08T10:35:59.106Z,76.60
2018-02-08T10:38:26.527Z,77.19
2018-02-08T10:40:53.945Z,77.43
2018-02-08T10:43:21.353Z,78.09
2018-02-08T10:45:48.769Z,78.66
2018-02-08T10:48:16.173Z,78.06
2018-02-08T10:50:43.587Z,76.79
2018-02-08T10:53:10.990Z,77.49
2018-02-08T10:55:38.411Z,77.55
2018-02-08T10:58:05.818Z,77.80
2018-02-08T11:00:33.254Z,78.11
2018-02-08T11:03:00.659Z,78.47
2018-02-08T11:05:28.080Z,78.41
2018-02-08T11:07:55.494Z,77.78
2018-02-08T11:10:23.832Z,78.39
2018-02-08T11:12:51.255Z,77.42
2018-02-08T11:15:18.657Z,77.54
2018-02-08T11:17:46.085Z,76.81
2018-02-08T11:20:13.504Z,78.12
2018-02-08T11:22:40.919Z,77.47
2018-02-08T11:25:08.332Z,76.38
2018-02-08T11:27:35.743Z,77.00
2018-02-08T11:30:03.172Z,77.80
2018-02-08T11:32:30.594Z,78.15
2018-02-08T11:34:57.998Z,78.31
2018-02-08T11:37:25.417Z,78.88
2018-02-08T11:39:52.822Z,77.25
2018-02-08T11:42:20.245Z,77.38
2018-02-08T11:44:47.654Z,76.99
2018-02-08T11:47:15.069Z,76.27
2018-02-08T11:49:42.468Z,77.03
2018-02-08T11:52:09.885Z,75.93
2018-02-08T11:54:37.300Z,76.36
2018-02-08T11:57:04.710Z,74.45
2018-02-08T11:59:32.114Z,75.17
2018-02-08T12:01:59.524Z,74.38
2018-02-08T12:04:26.925Z,73.55
2018-02-08T12:06:55.368Z,72.92
2018-02-08T12:09:22.785Z,72.99
2018-02-08T12:11:50.184Z,73.53
2018-02-08T12:14:17.607Z,74.33
2018-02-08T12:16:45.023Z,75.16
2018-02-08T12:19:12.437Z,72.31
2018-02-08T12:21:39.844Z,72.05
2018-02-08T12:24:07.261Z,73.22
2018-02-08T12:26:34.673Z,73.66
2018-02-08T12:29:02.078Z,71.94
2018-02-08T12:31:29.484Z,70.30
2018-02-08T12:33:56.898Z,70.94
2018-02-08T12:36:24.301Z,71.23
2018-02-08T12:38:51.712Z,71.94
2018-02-08T12:41:19.113Z,72.06
2018-02-08T12:43:46.525Z,70.09
2018-02-08T12:46:13.924Z,68.89
2018-02-08T12:48:41.338Z,70.66
2018-02-08T12:51:08.748Z,68.34
2018-02-08T12:53:36.153Z,69.24
2018-02-08T12:56:03.560Z,69.29
2018-02-08T12:58:30.985Z,68.54
2018-02-08T13:00:58.386Z,69.29
2018-02-08T13:03:25.803Z,68.42
2018-02-08T13:05:53.214Z,66.85
2018-02-08T13:08:20.633Z,66.98
2018-02-08T13:10:48.028Z,66.73
2018-02-08T13:13:15.451Z,66.80
2018-02-08T13:15:42.863Z,66.62
2018-02-08T13:18:10.286Z,67.05
2018-02-08T13:20:37.692Z,66.62
2018-02-08T13:23:05.114Z,68.29
2018-02-08T13:25:32.512Z,70.77
2018-02-08T13:27:59.931Z,68.81
2018-02-08T13:30:27.814Z,68.17
2018-02-08T13:32:55.211Z,67.02
2018-02-08T13:35:22.636Z,69.03
2018-02-08T13:37:50.037Z,68.51
2018-02-08T13:40:22.948Z,67.60
2018-02-08T13:42:50.351Z,66.59
2018-02-08T13:45:17.768Z,66.58
2018-02-08T13:47:47.131Z,67.13
2018-02-08T13:53:22.117Z,67.95
2018-02-08T13:55:51.469Z,65.07
2018-02-08T14:01:39.712Z,64.94
2018-02-08T14:04:07.129Z,65.18
2018-02-08T14:06:34.549Z,65.20
2018-02-08T14:09:01.969Z,64.10
2018-02-08T14:11:29.371Z,64.72
2018-02-08T14:13:56.784Z,64.26
2018-02-08T14:16:24.194Z,64.50
2018-02-08T14:18:51.592Z,64.13
2018-02-08T14:21:19.007Z,63.59
2018-02-08T14:23:46.413Z,64.17
2018-02-08T14:26:13.826Z,65.26
2018-02-08T14:28:41.238Z,64.66
2018-02-08T14:31:08.652Z,65.26
2018-02-08T14:33:36.087Z,66.07
2018-02-08T14:36:03.469Z,66.54
2018-02-08T14:38:30.891Z,64.53
2018-02-08T14:40:58.300Z,65.23
2018-02-08T14:43:25.707Z,65.77
2018-02-08T14:45:53.134Z,64.36
2018-02-08T14:48:20.533Z,65.21
2018-02-08T14:50:47.968Z,63.81
2018-02-08T14:53:15.366Z,62.69
2018-02-08T14:55:42.785Z,62.69
2018-02-08T14:58:10.197Z,64.30
2018-02-08T15:00:37.607Z,64.48
2018-02-08T15:03:05.007Z,64.89
2018-02-08T15:05:32.426Z,64.20
2018-02-08T15:07:59.833Z,64.94
2018-02-08T15:10:27.254Z,65.07
2018-02-08T15:12:54.661Z,65.87
2018-02-08T15:15:22.073Z,65.98
2018-02-08T15:17:49.484Z,65.26
2018-02-08T15:20:16.900Z,66.46
2018-02-08T15:22:44.311Z,66.52
2018-02-08T15:25:11.725Z,67.03
2018-02-08T15:27:39.131Z,67.78
2018-02-08T15:30:06.536Z,67.19
2018-02-08T15:32:33.962Z,68.32
2018-02-08T15:35:01.872Z,68.51
2018-02-08T15:37:29.307Z,67.81
2018-02-08T15:39:56.717Z,68.72
2018-02-08T15:42:24.137Z,69.40
2018-02-08T15:44:51.545Z,69.20
2018-02-08T15:47:18.969Z,69.48
2018-02-08T15:49:46.377Z,70.62
2018-02-08T15:52:13.786Z,72.63
2018-02-08T15:54:41.184Z,71.09
2018-02-08T15:57:08.599Z,72.49
2018-02-08T15:59:35.999Z,72.11
2018-02-08T16:02:03.425Z,72.09
2018-02-08T16:04:30.820Z,73.42
2018-02-08T16:06:58.237Z,74.85
2018-02-08T16:09:25.651Z,74.66
2018-02-08T16:11:53.066Z,74.13
2018-02-08T16:14:20.464Z,74.92
2018-02-08T16:16:47.886Z,75.60
2018-02-08T16:19:15.287Z,76.50
2018-02-08T16:21:42.759Z,76.80
2018-02-08T16:24:10.217Z,75.36
2018-02-08T16:26:37.635Z,77.69
2018-02-08T16:29:05.038Z,75.68
2018-02-08T16:31:32.436Z,78.10
2018-02-08T16:33:59.854Z,77.22
2018-02-08T16:36:27.257Z,77.35
2018-02-08T16:38:54.677Z,77.78
2018-02-08T16:41:22.081Z,77.48
2018-02-08T16:43:49.508Z,77.75
2018-02-08T16:46:16.966Z,78.21
2018-02-08T16:48:44.339Z,78.84
2018-02-08T16:51:11.747Z,80.18
2018-02-08T16:53:39.156Z,78.95
2018-02-08T16:56:06.575Z,78.02
2018-02-08T16:58:35.030Z,78.50
2018-02-08T17:01:02.452Z,77.68
2018-02-08T17:03:29.873Z,77.92
2018-02-08T17:05:57.277Z,79.24
2018-02-08T17:08:24.704Z,80.60
2018-02-08T17:10:52.103Z,79.06
2018-02-08T17:13:19.513Z,78.16
2018-02-08T17:15:46.957Z,78.12
2018-02-08T17:18:14.333Z,78.88
2018-02-08T17:20:41.742Z,79.96
2018-02-08T17:23:09.151Z,82.67
2018-02-08T17:25:36.549Z,82.71
2018-02-08T17:28:03.952Z,80.33
2018-02-08T17:30:31.360Z,80.30
2018-02-08T17:32:59.553Z,80.12
2018-02-08T17:35:26.972Z,79.67
2018-02-08T17:37:54.951Z,79.25
2018-02-08T17:40:22.681Z,79.32
2018-02-08T17:42:50.244Z,79.77
2018-02-08T17:45:17.885Z,80.21
2018-02-08T17:47:46.112Z,80.74
2018-02-08T17:50:13.529Z,81.79
2018-02-08T17:52:40.928Z,83.67
2018-02-08T17:55:08.357Z,82.79
2018-02-08T17:57:35.786Z,82.81
2018-02-08T18:00:03.211Z,82.53
2018-02-08T18:02:30.616Z,82.17
2018-02-08T18:04:58.034Z,81.87
2018-02-08T18:07:25.439Z,82.20
2018-02-08T18:09:53.708Z,82.99
2018-02-08T18:12:21.117Z,83.22
2018-02-08T18:14:48.537Z,83.18
2018-02-08T18:17:15.950Z,82.86
2018-02-08T18:19:43.374Z,82.82
2018-02-08T18:22:10.805Z,83.13
2018-02-08T18:24:38.517Z,83.25
2018-02-08T18:27:05.921Z,83.01
2018-02-08T18:29:33.348Z,82.85
2018-02-08T18:32:00.748Z,84.68
2018-02-08T18:34:28.163Z,85.28
2018-02-08T18:36:55.580Z,83.92
2018-02-08T18:39:23.001Z,83.94
2018-02-08T18:41:50.392Z,83.81
2018-02-08T18:44:17.813Z,82.19
2018-02-08T18:46:45.214Z,81.79
2018-02-08T18:49:12.632Z,81.40
2018-02-08T18:51:40.040Z,81.27
2018-02-08T18:54:07.452Z,81.40
2018-02-08T18:56:34.880Z,81.50
2018-02-08T18:59:02.289Z,82.79
2018-02-08T19:01:29.705Z,83.13
2018-02-08T19:03:57.118Z,83.17
2018-02-08T19:06:24.531Z,82.60
2018-02-08T19:08:51.949Z,82.33
2018-02-08T19:11:19.369Z,82.93
2018-02-08T19:13:46.777Z,83.46
2018-02-08T19:16:14.201Z,84.62
2018-02-08T19:18:41.615Z,85.09
2018-02-08T19:21:09.028Z,84.90
2018-02-08T19:23:36.441Z,84.48
2018-02-08T19:26:04.441Z,84.00
2018-02-08T19:28:31.852Z,84.95
2018-02-08T19:30:59.280Z,84.83
2018-02-08T19:33:26.694Z,84.53
2018-02-08T19:35:54.119Z,83.82
2018-02-08T19:38:21.521Z,83.12
2018-02-08T19:40:48.945Z,83.13
2018-02-08T19:43:16.353Z,83.98
2018-02-08T19:45:43.773Z,83.92
2018-02-08T19:48:11.873Z,84.11
2018-02-08T19:50:39.305Z,84.44
2018-02-08T19:53:06.720Z,84.31
2018-02-08T19:55:34.135Z,84.13
2018-02-08T19:58:01.551Z,83.97
2018-02-08T20:00:28.962Z,85.09
2018-02-08T20:02:56.380Z,85.73
2018-02-08T20:05:23.791Z,85.42
2018-02-08T20:07:51.201Z,85.86
2018-02-08T20:10:18.620Z,85.91
2018-02-08T20:12:46.030Z,86.20
2018-02-08T20:15:13.450Z,86.38
2018-02-08T20:17:40.856Z,86.24
2018-02-08T20:20:08.264Z,86.00
2018-02-08T20:22:35.692Z,86.31
2018-02-08T20:25:05.464Z,86.32
2018-02-08T20:27:32.885Z,85.67
2018-02-08T20:30:00.288Z,84.99
2018-02-08T20:32:27.708Z,84.80
2018-02-08T20:34:55.132Z,84.83
2018-02-08T20:37:22.558Z,85.70
2018-02-08T20:39:49.956Z,85.66
2018-02-08T20:42:22.932Z,85.59
2018-02-08T20:44:50.341Z,86.28
2018-02-08T20:47:17.772Z,85.85
2018-02-08T20:49:50.812Z,84.95
2018-02-08T20:52:18.232Z,84.33
2018-02-08T20:54:45.648Z,84.17
2018-02-08T20:57:13.052Z,84.86
2018-02-08T20:59:40.471Z,84.94
2018-02-08T21:02:07.889Z,84.44
2018-02-08T21:04:35.304Z,83.84
2018-02-08T21:07:02.715Z,83.85
2018-02-08T21:09:30.134Z,84.61
2018-02-08T21:11:57.547Z,84.30
2018-02-08T21:14:24.965Z,84.80
2018-02-08T21:16:52.388Z,85.47
2018-02-08T21:19:19.796Z,85.69
2018-02-08T21:21:47.201Z,86.29
2018-02-08T21:24:14.613Z,86.69
2018-02-08T21:26:42.020Z,87.46
2018-02-08T21:29:10.188Z,88.03
2018-02-08T21:31:37.584Z,88.05
2018-02-08T21:34:05.009Z,87.83
2018-02-08T21:36:32.429Z,87.76
2018-02-08T21:38:59.869Z,87.61
2018-02-08T21:41:27.277Z,87.36
2018-02-08T21:43:54.686Z,87.19
2018-02-08T21:46:22.100Z,87.29
2018-02-08T21:48:49.516Z,87.64
2018-02-08T21:51:17.261Z,87.84
2018-02-08T21:53:44.665Z,87.86
2018-02-08T21:56:12.096Z,88.18
2018-02-08T21:58:39.503Z,88.73
2018-02-08T22:02:48.906Z,88.79
2018-02-08T22:05:16.346Z,88.05
2018-02-08T22:07:43.784Z,87.84
2018-02-08T22:10:11.214Z,88.47
2018-02-08T22:12:38.650Z,88.42
2018-02-08T22:15:06.082Z,88.30
2018-02-08T22:17:34.008Z,88.60
2018-02-08T22:20:01.459Z,88.32
2018-02-08T22:22:28.927Z,87.96
2018-02-08T22:24:56.360Z,87.70
2018-02-08T22:27:23.792Z,87.18
2018-02-08T22:29:51.233Z,86.87
2018-02-08T22:32:19.202Z,86.65
2018-02-08T22:34:46.618Z,86.06
2018-02-08T22:37:14.057Z,85.58
2018-02-08T22:39:41.481Z,84.98
2018-02-08T22:42:08.996Z,86.06
2018-02-08T22:44:36.422Z,85.35
2018-02-08T22:47:03.871Z,84.53
2018-02-08T22:49:31.794Z,85.07
2018-02-08T22:51:59.229Z,85.30
2018-02-08T22:54:26.667Z,85.38
2018-02-08T22:56:54.129Z,85.07
2018-02-08T22:59:21.557Z,85.00
2018-02-08T23:01:49.018Z,84.88
2018-02-08T23:04:16.433Z,84.98
2018-02-08T23:06:43.929Z,84.41
2018-02-08T23:09:11.347Z,84.29
2018-02-08T23:11:38.833Z,84.47
2018-02-08T23:14:06.252Z,84.62
2018-02-08T23:16:33.709Z,84.51
2018-02-08T23:19:01.152Z,84.45
2018-02-08T23:21:28.591Z,84.61
2018-02-08T23:23:56.042Z,84.61
2018-02-08T23:26:23.482Z,84.82
2018-02-08T23:28:51.792Z,84.73
2018-02-08T23:31:19.210Z,84.66
2018-02-08T23:33:46.646Z,84.46
2018-02-08T23:36:14.068Z,84.80
2018-02-08T23:38:41.539Z,85.13
2018-02-08T23:41:08.944Z,84.37
2018-02-08T23:43:36.430Z,84.18
2018-02-08T23:46:03.885Z,84.68
2018-02-08T23:48:31.308Z,85.50
2018-02-08T23:50:58.743Z,86.08
2018-02-08T23:53:26.163Z,85.11
2018-02-08T23:55:53.582Z,84.74
2018-02-08T23:58:21.026Z,85.63
